KPMD/PMD METAR and TAF weather

Enter ICAO airport designator
Station Type Date Time Source
KPMD METAR 2021/04/18 02:53 UTC NOAA

KPMD 180253Z 02010KT 10SM FEW120 21/M06 A2999 RMK AO2 SLP140 T02061061 53009 $


Station Type Date Time Source
KPMD Decoded METAR 2021/04/18 02:53 UTC NOAA

PALMDALE PROD FLIGHT PLANT, CA, United States (KPMD) 34-38N 118-05W 780M
Apr 17, 2021 - 10:53 PM EDT / 2021.04.18 0253 UTC
Wind: from the NNE (020 degrees) at 12 MPH (10 KT):0
Visibility: 10 mile(s):0
Sky conditions: mostly clear
Temperature: 69.1 F (20.6 C)
Dew Point: 21.0 F (-6.1 C)
Relative Humidity: 15%
Pressure (altimeter): 29.99 in. Hg (1015 hPa)
Pressure tendency: 0.03 inches (0.9 hPa) higher than three hours ago
ob: KPMD 180253Z 02010KT 10SM FEW120 21/M06 A2999 RMK AO2 SLP140 T02061061 53009
cycle: 3

Station Type Date Time Source
KPMD TAF 2021/04/17 18:39 UTC NOAA

KPMD 171735Z 1718/1818 03009KT P6SM SKC
FM180300 32005KT P6SM SKC
FM180700 20006KT P6SM SKC

Example: see airport list